createdAt,value
2017-09-17T00:00:18.347Z,8.53
2017-09-17T00:02:46.678Z,9.90
2017-09-17T00:05:14.263Z,8.30
2017-09-17T00:07:41.846Z,8.93
2017-09-17T00:10:09.405Z,8.00
2017-09-17T00:12:36.983Z,8.50
2017-09-17T00:15:04.547Z,7.03
2017-09-17T00:17:32.534Z,7.57
2017-09-17T00:20:00.079Z,7.30
2017-09-17T00:22:28.562Z,8.33
2017-09-17T00:24:56.192Z,6.77
2017-09-17T00:27:23.776Z,8.67
2017-09-17T00:29:51.355Z,6.90
2017-09-17T00:32:18.911Z,8.10
2017-09-17T00:34:46.499Z,7.30
2017-09-17T00:37:14.079Z,6.93
2017-09-17T00:39:42.478Z,7.17
2017-09-17T00:42:10.063Z,8.10
2017-09-17T00:44:37.634Z,7.30
2017-09-17T00:47:05.202Z,7.70
2017-09-17T00:49:32.792Z,8.67
2017-09-17T00:52:01.142Z,7.87
2017-09-17T00:54:29.017Z,6.78
2017-09-17T00:56:56.596Z,7.23
2017-09-17T00:59:24.935Z,7.27
2017-09-17T01:01:52.521Z,11.17
2017-09-17T01:04:20.867Z,9.90
2017-09-17T01:06:48.447Z,7.90
2017-09-17T01:09:16.038Z,7.47
2017-09-17T01:11:43.956Z,8.67
2017-09-17T01:14:13.028Z,7.10
2017-09-17T01:16:40.601Z,7.07
2017-09-17T01:19:08.176Z,13.60
2017-09-17T01:21:35.724Z,9.47
2017-09-17T01:24:03.291Z,7.70
2017-09-17T01:26:30.860Z,6.80
2017-09-17T01:28:58.420Z,7.23
2017-09-17T01:31:25.979Z,7.97
2017-09-17T01:33:53.592Z,7.87
2017-09-17T01:36:21.157Z,6.40
2017-09-17T01:38:49.047Z,6.83
2017-09-17T01:41:16.640Z,6.30
2017-09-17T01:43:45.004Z,7.00
2017-09-17T01:46:12.608Z,6.30
2017-09-17T01:48:40.164Z,5.90
2017-09-17T01:51:07.768Z,6.10
2017-09-17T01:53:35.329Z,7.60
2017-09-17T01:56:02.917Z,5.82
2017-09-17T01:58:31.253Z,5.93
2017-09-17T02:00:59.109Z,5.30
2017-09-17T02:03:26.669Z,5.40
2017-09-17T02:05:54.255Z,5.20
2017-09-17T02:08:21.853Z,4.77
2017-09-17T02:10:49.429Z,4.83
2017-09-17T02:13:17.008Z,7.23
2017-09-17T02:15:44.582Z,5.93
2017-09-17T02:18:12.434Z,4.00
2017-09-17T02:20:40.018Z,4.23
2017-09-17T02:23:07.575Z,4.13
2017-09-17T02:25:35.160Z,4.10
2017-09-17T02:28:03.498Z,4.10
2017-09-17T02:30:31.072Z,4.93
2017-09-17T02:32:58.628Z,6.70
2017-09-17T02:35:26.225Z,4.10
2017-09-17T02:37:53.809Z,5.43
2017-09-17T02:40:21.400Z,4.20
2017-09-17T02:42:48.973Z,3.80
2017-09-17T02:45:16.921Z,3.87
2017-09-17T02:47:44.505Z,4.70
2017-09-17T02:50:12.849Z,4.37
2017-09-17T02:52:40.420Z,3.43
2017-09-17T02:55:08.001Z,3.40
2017-09-17T02:57:36.330Z,3.47
2017-09-17T03:00:03.922Z,3.73
2017-09-17T03:02:31.496Z,3.97
2017-09-17T03:04:59.831Z,3.93
2017-09-17T03:07:27.441Z,3.53
2017-09-17T03:09:55.757Z,4.60
2017-09-17T03:12:23.346Z,4.23
2017-09-17T03:14:50.911Z,4.00
2017-09-17T03:17:18.879Z,2.90
2017-09-17T03:19:46.455Z,3.53
2017-09-17T03:22:14.796Z,3.83
2017-09-17T03:24:42.392Z,3.33
2017-09-17T03:27:10.737Z,13.77
2017-09-17T03:29:38.324Z,3.00
2017-09-17T03:32:06.662Z,3.90
2017-09-17T03:34:34.238Z,3.90
2017-09-17T03:37:01.811Z,3.43
2017-09-17T03:39:29.714Z,4.00
2017-09-17T03:41:57.287Z,3.30
2017-09-17T03:44:24.937Z,4.30
2017-09-17T03:46:52.509Z,3.13
2017-09-17T03:49:20.069Z,2.77
2017-09-17T03:51:47.654Z,3.77
2017-09-17T03:54:15.217Z,3.60
2017-09-17T03:56:42.794Z,4.30
2017-09-17T03:59:10.360Z,3.40
2017-09-17T04:01:38.976Z,4.73
2017-09-17T04:04:06.542Z,3.33
2017-09-17T04:06:34.105Z,3.40
2017-09-17T04:09:01.683Z,2.70
2017-09-17T04:11:29.247Z,2.60
2017-09-17T04:13:56.831Z,3.17
2017-09-17T04:16:25.173Z,2.60
2017-09-17T04:18:52.759Z,3.12
2017-09-17T04:21:30.782Z,2.73
2017-09-17T04:23:59.118Z,2.73
2017-09-17T04:26:26.695Z,3.10
2017-09-17T04:28:54.546Z,3.13
2017-09-17T04:31:22.115Z,4.45
2017-09-17T04:33:49.666Z,2.80
2017-09-17T04:36:17.257Z,2.50
2017-09-17T04:38:44.823Z,2.83
2017-09-17T04:41:13.242Z,3.20
2017-09-17T04:43:40.803Z,2.53
2017-09-17T04:46:08.376Z,2.33
2017-09-17T04:48:35.953Z,3.10
2017-09-17T04:51:03.556Z,2.63
2017-09-17T04:53:31.232Z,2.40
2017-09-17T04:55:59.061Z,2.53
2017-09-17T04:58:27.378Z,3.90
2017-09-17T05:00:54.951Z,2.87
2017-09-17T05:03:22.543Z,3.40
2017-09-17T05:05:50.157Z,2.00
2017-09-17T05:08:17.733Z,3.10
2017-09-17T05:10:46.070Z,4.40
2017-09-17T05:13:13.654Z,3.30
2017-09-17T05:15:41.213Z,3.28
2017-09-17T05:18:08.780Z,2.97
2017-09-17T05:20:36.353Z,3.00
2017-09-17T05:23:04.217Z,3.47
2017-09-17T05:25:31.780Z,3.47
2017-09-17T05:27:59.359Z,4.97
2017-09-17T05:30:26.940Z,5.63
2017-09-17T05:32:55.280Z,4.47
2017-09-17T05:35:22.855Z,6.63
2017-09-17T05:37:50.424Z,3.90
2017-09-17T05:40:18.770Z,3.80
2017-09-17T05:42:46.325Z,3.37
2017-09-17T05:45:13.898Z,4.73
2017-09-17T05:47:41.458Z,3.67
2017-09-17T05:50:09.406Z,4.20
2017-09-17T05:52:36.975Z,3.60
2017-09-17T05:55:04.531Z,5.60
2017-09-17T05:57:32.133Z,5.27
2017-09-17T06:00:00.452Z,7.43
2017-09-17T06:02:28.035Z,4.77
2017-09-17T06:04:55.603Z,4.90
2017-09-17T06:07:23.171Z,4.60
2017-09-17T06:09:50.744Z,6.53
2017-09-17T06:12:19.350Z,5.03
2017-09-17T06:14:46.917Z,5.80
2017-09-17T06:17:14.490Z,7.10
2017-09-17T06:19:42.071Z,7.28
2017-09-17T06:22:09.662Z,7.47
2017-09-17T06:24:38.017Z,8.27
2017-09-17T06:27:05.586Z,10.30
2017-09-17T06:29:33.924Z,9.70
2017-09-17T06:32:01.513Z,10.17
2017-09-17T06:34:29.374Z,10.33
2017-09-17T06:36:56.960Z,8.47
2017-09-17T06:39:25.313Z,11.13
2017-09-17T06:41:52.897Z,11.00
2017-09-17T06:44:21.226Z,10.73
2017-09-17T06:46:48.815Z,11.13
2017-09-17T06:49:16.378Z,10.70
2017-09-17T06:51:44.729Z,11.83
2017-09-17T06:54:12.315Z,13.50
2017-09-17T06:56:40.928Z,13.00
2017-09-17T06:59:08.503Z,15.13
2017-09-17T07:01:36.077Z,12.40
2017-09-17T07:04:03.649Z,13.70
2017-09-17T07:06:31.234Z,13.60
2017-09-17T07:08:58.824Z,13.65
2017-09-17T07:11:26.430Z,17.10
2017-09-17T07:13:55.010Z,16.50
2017-09-17T07:16:22.594Z,17.37
2017-09-17T07:18:50.478Z,16.33
2017-09-17T07:21:18.824Z,23.97
2017-09-17T07:23:46.425Z,17.80
2017-09-17T07:26:14.040Z,17.75
2017-09-17T07:28:41.631Z,18.73
2017-09-17T07:31:09.973Z,18.83
2017-09-17T07:33:37.555Z,20.43
2017-09-17T07:36:05.913Z,21.57
2017-09-17T07:38:33.877Z,18.43
2017-09-17T07:41:01.441Z,18.43
2017-09-17T07:43:29.013Z,22.23
2017-09-17T07:45:57.373Z,23.77
2017-09-17T07:48:25.077Z,19.00
2017-09-17T07:50:52.690Z,21.13
2017-09-17T07:53:20.290Z,21.10
2017-09-17T07:55:48.659Z,20.40
2017-09-17T07:58:17.038Z,19.30
2017-09-17T08:00:45.694Z,19.90
2017-09-17T08:03:13.294Z,20.48
2017-09-17T08:05:40.903Z,19.13
2017-09-17T08:08:08.520Z,19.53
2017-09-17T08:10:36.168Z,19.60
2017-09-17T08:13:04.523Z,17.77
2017-09-17T08:15:32.115Z,18.93
2017-09-17T08:17:59.733Z,20.47
2017-09-17T08:20:27.331Z,18.20
2017-09-17T08:22:55.211Z,17.63
2017-09-17T08:25:22.823Z,15.27
2017-09-17T08:27:50.398Z,15.23
2017-09-17T08:30:17.989Z,15.67
2017-09-17T08:32:45.585Z,16.70
2017-09-17T08:35:13.174Z,14.73
2017-09-17T08:37:41.517Z,13.73
2017-09-17T08:40:09.899Z,15.00
2017-09-17T08:42:37.854Z,16.77
2017-09-17T08:45:05.747Z,15.07
2017-09-17T08:47:33.329Z,14.33
2017-09-17T08:50:01.665Z,10.90
2017-09-17T08:52:29.817Z,12.00
2017-09-17T08:54:57.407Z,9.40
2017-09-17T08:57:25.924Z,11.10
2017-09-17T08:59:54.286Z,11.17
2017-09-17T09:02:21.887Z,13.03
2017-09-17T09:04:49.514Z,12.57
2017-09-17T09:07:18.196Z,12.30
2017-09-17T09:09:46.582Z,11.37
2017-09-17T09:12:14.942Z,12.40
2017-09-17T09:14:42.563Z,14.00
2017-09-17T09:17:10.146Z,13.60
2017-09-17T09:19:37.722Z,12.60
2017-09-17T09:22:05.327Z,14.70
2017-09-17T09:24:33.217Z,14.60
2017-09-17T09:27:00.780Z,16.80
2017-09-17T09:29:29.154Z,12.90
2017-09-17T09:31:56.743Z,13.50
2017-09-17T09:34:24.323Z,13.57
2017-09-17T09:36:52.947Z,14.13
2017-09-17T09:39:20.539Z,14.93
2017-09-17T09:41:48.142Z,13.67
2017-09-17T09:44:16.510Z,13.50
2017-09-17T09:46:44.111Z,14.10
2017-09-17T09:49:12.027Z,12.43
2017-09-17T09:51:40.369Z,11.17
2017-09-17T09:54:08.074Z,11.20
2017-09-17T09:56:36.711Z,12.13
2017-09-17T09:59:04.678Z,11.43
2017-09-17T10:01:32.262Z,9.50
2017-09-17T10:03:59.875Z,9.80
2017-09-17T10:06:27.775Z,11.30
2017-09-17T10:08:55.342Z,10.30
2017-09-17T10:11:22.901Z,9.57
2017-09-17T10:13:57.112Z,7.30
2017-09-17T10:16:24.714Z,8.23
2017-09-17T10:18:52.568Z,10.63
2017-09-17T10:21:25.955Z,7.50
2017-09-17T10:23:57.958Z,8.23
2017-09-17T10:26:25.716Z,7.40
2017-09-17T10:28:53.381Z,6.60
2017-09-17T10:31:20.969Z,6.57
2017-09-17T10:33:48.536Z,6.57
2017-09-17T10:36:16.164Z,5.90
2017-09-17T10:38:43.727Z,6.53
2017-09-17T10:41:11.615Z,5.30
2017-09-17T10:43:39.222Z,5.87
2017-09-17T10:46:06.789Z,6.37
2017-09-17T10:48:34.408Z,4.80
2017-09-17T10:51:01.993Z,6.50
2017-09-17T10:53:31.637Z,9.00
2017-09-17T10:55:59.201Z,5.43
2017-09-17T10:58:26.856Z,4.50
2017-09-17T11:00:54.431Z,3.93
2017-09-17T11:03:22.320Z,5.00
2017-09-17T11:05:50.765Z,4.43
2017-09-17T11:08:18.343Z,5.50
2017-09-17T11:10:46.694Z,6.13
2017-09-17T11:13:14.271Z,4.70
2017-09-17T11:15:41.875Z,5.33
2017-09-17T11:18:10.230Z,4.17
2017-09-17T11:20:38.195Z,4.23
2017-09-17T11:23:05.795Z,5.07
2017-09-17T11:25:34.117Z,6.10
2017-09-17T11:28:01.712Z,5.17
2017-09-17T11:30:30.044Z,5.10
2017-09-17T11:32:57.631Z,5.40
2017-09-17T11:35:25.215Z,5.17
2017-09-17T11:37:53.068Z,4.30
2017-09-17T11:40:21.420Z,5.10
2017-09-17T11:42:48.976Z,2.57
2017-09-17T11:45:16.553Z,3.80
2017-09-17T11:47:44.152Z,2.87
2017-09-17T11:50:11.743Z,2.50
2017-09-17T11:52:39.385Z,2.33
2017-09-17T11:55:07.282Z,2.87
2017-09-17T11:57:34.858Z,2.10
2017-09-17T12:00:02.425Z,2.67
2017-09-17T12:02:30.782Z,2.87
2017-09-17T12:04:58.378Z,1.83
2017-09-17T12:07:26.733Z,2.73
2017-09-17T12:09:54.294Z,1.97
2017-09-17T12:12:22.225Z,2.60
2017-09-17T12:14:49.803Z,3.03
2017-09-17T12:17:17.389Z,1.43
2017-09-17T12:19:45.746Z,2.73
2017-09-17T12:22:13.318Z,2.37
2017-09-17T12:24:44.065Z,2.20
2017-09-17T12:27:12.411Z,1.77
2017-09-17T12:29:40.283Z,1.37
2017-09-17T12:32:07.879Z,1.67
2017-09-17T12:34:35.542Z,1.40
2017-09-17T12:37:04.245Z,1.33
2017-09-17T12:39:31.814Z,1.77
2017-09-17T12:42:00.243Z,2.93
2017-09-17T12:44:28.566Z,1.50
2017-09-17T12:46:56.174Z,1.73
2017-09-17T12:49:23.760Z,1.90
2017-09-17T12:51:51.657Z,1.30
2017-09-17T12:54:19.215Z,2.40
2017-09-17T12:56:46.793Z,1.70
2017-09-17T12:59:15.159Z,1.97
2017-09-17T13:01:42.780Z,1.50
2017-09-17T13:04:10.340Z,1.53
2017-09-17T13:06:37.925Z,1.33
2017-09-17T13:09:05.908Z,3.17
2017-09-17T13:11:33.463Z,0.90
2017-09-17T13:14:01.028Z,1.23
2017-09-17T13:16:28.618Z,0.87
2017-09-17T13:18:56.282Z,0.93
2017-09-17T13:21:23.898Z,2.00
2017-09-17T13:23:51.493Z,1.70
2017-09-17T13:26:19.093Z,3.03
2017-09-17T13:28:46.654Z,1.17
2017-09-17T13:31:14.289Z,1.67
2017-09-17T13:33:43.555Z,1.30
2017-09-17T13:36:11.570Z,1.17
2017-09-17T13:38:39.142Z,1.00
2017-09-17T13:41:06.710Z,1.00
2017-09-17T13:43:34.299Z,1.30
2017-09-17T13:46:01.890Z,0.80
2017-09-17T13:48:30.267Z,2.10
2017-09-17T13:50:58.641Z,1.07
2017-09-17T13:53:27.920Z,1.20
2017-09-17T13:55:56.322Z,1.07
2017-09-17T13:58:23.908Z,1.27
2017-09-17T14:00:51.537Z,1.87
2017-09-17T14:06:38.512Z,1.10
2017-09-17T14:09:08.731Z,1.27
2017-09-17T14:11:36.311Z,1.00
2017-09-17T14:14:04.679Z,1.43
2017-09-17T14:16:32.260Z,0.70
2017-09-17T14:19:00.163Z,1.30
2017-09-17T14:21:27.754Z,1.00
2017-09-17T14:23:55.343Z,2.70
2017-09-17T14:26:22.932Z,0.70
2017-09-17T14:28:50.527Z,1.53
2017-09-17T14:31:18.136Z,1.00
2017-09-17T14:33:45.786Z,0.95
2017-09-17T14:36:14.135Z,0.80
2017-09-17T14:38:41.733Z,1.03
2017-09-17T14:41:09.323Z,1.07
2017-09-17T14:43:36.940Z,2.73
2017-09-17T14:46:04.896Z,1.87
2017-09-17T14:48:33.233Z,1.20
2017-09-17T14:51:00.855Z,1.20
2017-09-17T14:53:28.638Z,0.80
2017-09-17T14:55:56.235Z,0.90
2017-09-17T14:58:23.867Z,0.80
2017-09-17T15:00:51.508Z,0.80
2017-09-17T15:03:19.160Z,1.17
2017-09-17T15:05:46.763Z,0.50
2017-09-17T15:08:14.406Z,1.87
2017-09-17T15:10:42.803Z,1.43
2017-09-17T15:13:11.558Z,1.87
2017-09-17T15:15:39.176Z,0.67
2017-09-17T15:18:06.771Z,0.80
2017-09-17T15:20:34.377Z,0.90
2017-09-17T15:23:01.984Z,0.70
2017-09-17T15:25:29.582Z,0.83
2017-09-17T15:27:57.177Z,0.70
2017-09-17T15:30:25.580Z,1.03
2017-09-17T15:32:53.163Z,1.63
2017-09-17T15:35:20.761Z,0.90
2017-09-17T15:37:48.353Z,0.87
2017-09-17T15:40:18.125Z,0.87
2017-09-17T15:42:45.768Z,0.70
2017-09-17T15:45:13.411Z,0.90
2017-09-17T15:47:41.050Z,1.67
2017-09-17T15:50:08.649Z,0.60
2017-09-17T15:52:36.251Z,0.93
2017-09-17T15:55:04.625Z,0.80
2017-09-17T15:57:32.998Z,1.20
2017-09-17T16:00:01.417Z,0.70
2017-09-17T16:02:29.293Z,1.00
2017-09-17T16:04:56.883Z,0.70
2017-09-17T16:07:24.474Z,0.50
2017-09-17T16:09:52.896Z,0.70
2017-09-17T16:12:20.528Z,1.10
2017-09-17T16:14:48.118Z,1.07
2017-09-17T16:17:16.496Z,1.37
2017-09-17T16:19:44.376Z,0.87
2017-09-17T16:22:12.745Z,0.80
2017-09-17T16:24:40.326Z,1.40
2017-09-17T16:27:08.760Z,0.60
2017-09-17T16:29:36.347Z,1.37
2017-09-17T16:32:03.941Z,1.53
2017-09-17T16:34:32.298Z,1.30
2017-09-17T16:36:59.925Z,0.70
2017-09-17T16:39:27.498Z,0.70
2017-09-17T16:41:55.102Z,0.93
2017-09-17T16:44:23.490Z,0.93
2017-09-17T16:46:52.108Z,0.77
2017-09-17T16:49:19.664Z,0.60
2017-09-17T16:51:47.222Z,1.30
2017-09-17T16:54:14.871Z,1.00
2017-09-17T16:56:42.473Z,2.10
2017-09-17T16:59:10.052Z,1.03
2017-09-17T17:01:38.391Z,1.70
2017-09-17T17:04:05.974Z,1.30
2017-09-17T17:06:33.540Z,1.30
2017-09-17T17:09:01.490Z,1.30
2017-09-17T17:11:29.052Z,1.63
2017-09-17T17:13:56.658Z,1.08
2017-09-17T17:16:24.261Z,1.70
2017-09-17T17:18:52.609Z,1.73
2017-09-17T17:21:20.200Z,2.27
2017-09-17T17:23:48.579Z,2.45
2017-09-17T17:26:16.179Z,6.33
2017-09-17T17:28:44.519Z,3.40
2017-09-17T17:31:12.391Z,2.60
2017-09-17T17:33:39.994Z,2.20
2017-09-17T17:36:07.622Z,5.23
2017-09-17T17:38:35.226Z,2.60
2017-09-17T17:41:02.833Z,4.23
2017-09-17T17:43:30.496Z,3.40
2017-09-17T17:45:58.186Z,3.40
2017-09-17T17:48:26.881Z,5.73
2017-09-17T17:50:54.476Z,6.57
2017-09-17T17:53:22.078Z,7.83
2017-09-17T17:55:50.496Z,6.20
2017-09-17T17:58:18.081Z,5.83
2017-09-17T18:00:45.688Z,6.40
2017-09-17T18:03:13.266Z,7.28
2017-09-17T18:05:40.854Z,6.07
2017-09-17T18:08:08.443Z,4.70
2017-09-17T18:10:36.316Z,4.60
2017-09-17T18:13:03.876Z,5.73
2017-09-17T18:15:31.464Z,5.17
2017-09-17T18:17:59.286Z,5.13
2017-09-17T18:20:26.962Z,4.57
2017-09-17T18:22:55.494Z,5.50
2017-09-17T18:25:23.062Z,5.82
2017-09-17T18:27:50.654Z,5.90
2017-09-17T18:30:18.268Z,5.95
2017-09-17T18:32:45.848Z,3.83
2017-09-17T18:35:13.447Z,4.97
2017-09-17T18:37:42.095Z,7.13
2017-09-17T18:40:09.835Z,6.87
2017-09-17T18:42:37.443Z,7.23
2017-09-17T18:45:05.170Z,5.60
2017-09-17T18:47:32.748Z,5.53
2017-09-17T18:50:00.347Z,8.00
2017-09-17T18:52:28.684Z,5.03
2017-09-17T18:54:56.296Z,4.80
2017-09-17T18:57:23.861Z,6.32
2017-09-17T18:59:51.473Z,6.90
2017-09-17T19:02:19.075Z,6.47
2017-09-17T19:04:47.011Z,6.87
2017-09-17T19:07:14.598Z,5.30
2017-09-17T19:09:42.262Z,6.30
2017-09-17T19:12:09.877Z,5.80
2017-09-17T19:14:37.463Z,5.50
2017-09-17T19:17:05.863Z,5.20
2017-09-17T19:19:33.442Z,6.00
2017-09-17T19:22:01.017Z,5.53
2017-09-17T19:24:28.655Z,4.10
2017-09-17T19:26:56.581Z,5.32
2017-09-17T19:29:24.915Z,6.82
2017-09-17T19:31:52.501Z,5.83
2017-09-17T19:34:20.323Z,6.27
2017-09-17T19:36:47.907Z,7.57
2017-09-17T19:39:15.501Z,5.37
2017-09-17T19:41:43.837Z,4.67
2017-09-17T19:44:11.435Z,6.70
2017-09-17T19:46:41.231Z,5.07
2017-09-17T19:49:08.864Z,4.23
2017-09-17T19:51:36.454Z,6.20
2017-09-17T19:54:04.077Z,4.63
2017-09-17T19:56:31.647Z,3.87
2017-09-17T19:58:59.807Z,3.50
2017-09-17T20:01:27.568Z,2.92
2017-09-17T20:03:55.154Z,3.33
2017-09-17T20:06:22.768Z,3.13
2017-09-17T20:08:50.945Z,3.03
2017-09-17T20:11:18.564Z,3.80
2017-09-17T20:13:46.145Z,5.33
2017-09-17T20:16:14.545Z,3.30
2017-09-17T20:18:42.145Z,3.70
2017-09-17T20:21:10.100Z,4.20
2017-09-17T20:23:39.101Z,2.83
2017-09-17T20:26:06.673Z,3.43
2017-09-17T20:28:34.273Z,2.50
2017-09-17T20:31:01.873Z,3.07
2017-09-17T20:33:30.376Z,2.50
2017-09-17T20:35:57.992Z,3.40
2017-09-17T20:38:25.582Z,2.60
2017-09-17T20:40:53.155Z,2.87
2017-09-17T20:43:20.900Z,3.30
2017-09-17T20:45:48.469Z,2.77
2017-09-17T20:48:16.427Z,3.10
2017-09-17T20:50:44.016Z,3.03
2017-09-17T20:53:12.446Z,2.00
2017-09-17T20:55:40.537Z,2.97
2017-09-17T20:58:08.129Z,2.60
2017-09-17T21:00:36.489Z,2.43
2017-09-17T21:03:04.071Z,3.33
2017-09-17T21:05:33.003Z,4.45
2017-09-17T21:08:00.593Z,3.60
2017-09-17T21:10:28.183Z,3.20
2017-09-17T21:12:56.653Z,3.43
2017-09-17T21:15:24.999Z,2.93
2017-09-17T21:17:52.942Z,3.30
2017-09-17T21:20:20.546Z,4.83
2017-09-17T21:22:48.123Z,3.50
2017-09-17T21:25:16.482Z,4.00
2017-09-17T21:27:44.058Z,3.33
2017-09-17T21:30:12.500Z,4.07
2017-09-17T21:32:40.546Z,5.50
2017-09-17T21:35:08.119Z,3.80
2017-09-17T21:37:35.676Z,7.07
2017-09-17T21:40:03.389Z,4.70
2017-09-17T21:42:31.024Z,3.60
2017-09-17T21:44:58.809Z,3.40
2017-09-17T21:47:26.421Z,4.40
2017-09-17T21:49:54.340Z,4.10
2017-09-17T21:52:22.812Z,5.00
2017-09-17T21:54:51.175Z,4.32
2017-09-17T21:57:19.101Z,6.40
2017-09-17T21:59:46.696Z,5.23
2017-09-17T22:02:14.265Z,5.80
2017-09-17T22:04:41.831Z,5.90
2017-09-17T22:07:10.187Z,3.33
2017-09-17T22:09:37.746Z,3.30
2017-09-17T22:12:05.691Z,7.50
2017-09-17T22:14:33.263Z,4.00
2017-09-17T22:17:00.820Z,4.93
2017-09-17T22:19:28.405Z,4.30
2017-09-17T22:21:55.972Z,4.40
2017-09-17T22:24:23.563Z,5.63
2017-09-17T22:26:51.118Z,4.97
2017-09-17T22:29:19.011Z,3.77
2017-09-17T22:31:46.711Z,3.53
2017-09-17T22:34:14.349Z,3.83
2017-09-17T22:36:41.943Z,3.50
2017-09-17T22:39:10.273Z,4.03
2017-09-17T22:41:37.845Z,3.23
2017-09-17T22:44:05.431Z,5.40
2017-09-17T22:46:32.997Z,2.92
2017-09-17T22:49:01.337Z,2.43
2017-09-17T22:51:29.492Z,3.17
2017-09-17T22:53:57.067Z,2.87
2017-09-17T22:56:24.629Z,2.70
2017-09-17T22:58:52.201Z,1.80
2017-09-17T23:01:19.778Z,2.63
2017-09-17T23:03:48.117Z,1.70
2017-09-17T23:06:15.689Z,2.13
2017-09-17T23:08:43.346Z,4.10
2017-09-17T23:11:10.938Z,2.00
2017-09-17T23:13:39.371Z,2.10
2017-09-17T23:16:06.934Z,2.10
2017-09-17T23:18:34.493Z,2.10
2017-09-17T23:21:02.096Z,1.75
2017-09-17T23:23:30.443Z,2.73
2017-09-17T23:25:58.015Z,2.43
2017-09-17T23:28:25.579Z,1.80
2017-09-17T23:30:53.159Z,1.60
2017-09-17T23:33:21.576Z,1.90
2017-09-17T23:35:49.143Z,2.40
2017-09-17T23:38:16.707Z,2.13
2017-09-17T23:40:44.651Z,2.30
2017-09-17T23:43:12.237Z,1.80
2017-09-17T23:45:39.896Z,2.10
2017-09-17T23:48:07.549Z,2.12
2017-09-17T23:50:35.124Z,2.00
2017-09-17T23:53:02.688Z,1.57
2017-09-17T23:55:30.251Z,2.73
2017-09-17T23:57:57.812Z,3.40
